Time;durP1;ratioP1;P1;durP2;ratioP2;P2;SDS_P1;SDS_P2;PMS_P1;PMS_P2;Temp;Humidity;BMP_temperature;BMP_pressure;BME280_temperature;BME280_humidity;BME280_pressure;Samples;Min_cycle;Max_cycle;Signal;HPM_P1;HPM_P2
2023/03/19 00:00:46;;;;;;;23.03;13.13;;;5.80;99.90;;;;;;5090937;28;20280;-75
2023/03/19 00:03:14;;;;;;;18.27;13.80;;;5.70;99.90;;;;;;5091184;28;20216;-76
2023/03/19 00:05:50;;;;;;;17.70;13.77;;;5.70;99.90;;;;;;5092182;28;20215;-77
2023/03/19 00:08:19;;;;;;;18.10;13.00;;;5.60;99.90;;;;;;5090917;28;20214;-77
2023/03/19 00:10:47;;;;;;;18.70;13.67;;;5.60;99.90;;;;;;5091567;28;20211;-77
2023/03/19 00:13:15;;;;;;;19.50;13.73;;;5.60;99.90;;;;;;5091274;28;20211;-77
2023/03/19 00:15:45;;;;;;;18.67;13.40;;;5.50;99.90;;;;;;5092420;28;20573;-77
2023/03/19 00:18:13;;;;;;;19.73;14.20;;;5.40;99.90;;;;;;5094442;28;20290;-76
2023/03/19 00:20:43;;;;;;;19.80;13.63;;;5.40;99.90;;;;;;5094859;28;20219;-77
2023/03/19 00:23:11;;;;;;;21.13;13.20;;;5.40;99.90;;;;;;5094456;28;20214;-77
2023/03/19 00:25:39;;;;;;;19.23;14.23;;;5.40;99.90;;;;;;5094341;28;20237;-78
2023/03/19 00:28:08;;;;;;;18.10;13.57;;;5.40;99.90;;;;;;5094831;28;20317;-77
2023/03/19 00:30:36;;;;;;;18.27;14.13;;;5.30;99.90;;;;;;5095363;28;20199;-76
2023/03/19 00:33:06;;;;;;;18.40;13.23;;;5.30;99.90;;;;;;5095123;28;20215;-76
2023/03/19 00:35:35;;;;;;;21.83;13.53;;;5.30;99.90;;;;;;5094367;28;20211;-77
2023/03/19 00:38:03;;;;;;;17.17;13.13;;;5.30;99.90;;;;;;5095112;28;20215;-76
2023/03/19 00:40:32;;;;;;;19.63;13.73;;;5.30;99.90;;;;;;5094850;28;20231;-76
2023/03/19 00:43:00;;;;;;;17.87;13.13;;;5.30;99.90;;;;;;5094204;28;20688;-77
2023/03/19 00:45:29;;;;;;;16.13;12.70;;;5.30;99.90;;;;;;5093334;28;20206;-75
2023/03/19 00:47:58;;;;;;;21.30;13.17;;;5.20;99.90;;;;;;5094643;28;20206;-78
2023/03/19 00:50:27;;;;;;;16.97;13.10;;;5.20;99.90;;;;;;5077333;28;20312;-78
2023/03/19 00:52:55;;;;;;;20.90;13.20;;;5.20;99.90;;;;;;5074305;28;20211;-78
2023/03/19 00:55:26;;;;;;;16.23;12.67;;;5.20;99.90;;;;;;5094075;28;20288;-77
2023/03/19 00:57:54;;;;;;;18.43;13.13;;;5.10;99.90;;;;;;5094366;28;20207;-77
2023/03/19 01:00:23;;;;;;;17.27;12.30;;;5.10;99.90;;;;;;5093921;28;20277;-77
2023/03/19 01:02:51;;;;;;;18.33;12.47;;;5.10;99.90;;;;;;5093607;28;20619;-78
2023/03/19 01:05:19;;;;;;;21.87;13.10;;;5.00;99.90;;;;;;5094999;28;20207;-78
2023/03/19 01:07:49;;;;;;;16.00;13.13;;;5.00;99.90;;;;;;5095890;28;20545;-78
2023/03/19 01:10:18;;;;;;;17.97;13.07;;;4.90;99.90;;;;;;5094415;28;20222;-78
2023/03/19 01:12:46;;;;;;;21.53;12.83;;;4.90;99.90;;;;;;5093514;28;20677;-76
2023/03/19 01:15:15;;;;;;;17.37;13.07;;;4.80;99.90;;;;;;5094044;28;20569;-77
2023/03/19 01:17:43;;;;;;;18.27;12.70;;;4.80;99.90;;;;;;5094121;28;20207;-75
2023/03/19 01:20:14;;;;;;;18.00;12.47;;;4.70;99.90;;;;;;5093117;28;20261;-77
2023/03/19 01:22:43;;;;;;;18.90;12.30;;;4.70;99.90;;;;;;5093313;28;20661;-77
2023/03/19 01:25:14;;;;;;;17.27;13.00;;;4.60;99.90;;;;;;5096639;28;20293;-77
2023/03/19 01:27:42;;;;;;;18.40;12.13;;;4.60;99.90;;;;;;5095298;28;20250;-76
2023/03/19 01:30:11;;;;;;;18.43;13.03;;;4.60;99.90;;;;;;5093712;28;20672;-76
2023/03/19 01:32:40;;;;;;;16.40;12.50;;;4.50;99.90;;;;;;5094388;28;20217;-77
2023/03/19 01:35:09;;;;;;;14.40;11.87;;;4.50;99.90;;;;;;5093020;28;20613;-78
2023/03/19 01:37:37;;;;;;;18.50;12.73;;;4.50;99.90;;;;;;5093394;28;20217;-77
2023/03/19 01:40:08;;;;;;;17.47;11.90;;;4.40;99.90;;;;;;5093542;28;20211;-77
2023/03/19 01:42:51;;;;;;;22.30;12.17;;;4.40;99.90;;;;;;5092392;28;20274;-78
2023/03/19 01:45:34;;;;;;;18.03;11.73;;;4.40;99.90;;;;;;5093345;28;20234;-77
2023/03/19 01:48:04;;;;;;;15.83;11.67;;;4.40;99.90;;;;;;5084729;28;20206;-76
2023/03/19 01:50:38;;;;;;;17.20;12.30;;;4.40;99.90;;;;;;5073108;28;20207;-78
2023/03/19 01:53:07;;;;;;;16.77;11.70;;;4.30;99.90;;;;;;5083231;28;20226;-77
2023/03/19 01:55:40;;;;;;;16.77;11.87;;;4.30;99.90;;;;;;5093140;28;20218;-78
2023/03/19 01:58:10;;;;;;;16.53;12.07;;;4.30;99.90;;;;;;5092958;28;20211;-78
2023/03/19 02:00:39;;;;;;;16.97;12.03;;;4.20;99.90;;;;;;5093007;28;20227;-77
2023/03/19 02:03:07;;;;;;;18.47;12.10;;;4.20;99.90;;;;;;5092220;28;20209;-77
2023/03/19 02:05:37;;;;;;;17.53;12.80;;;4.20;99.90;;;;;;5092796;28;20555;-77
2023/03/19 02:08:09;;;;;;;19.70;12.07;;;4.10;99.90;;;;;;5092922;28;20215;-77
2023/03/19 02:10:37;;;;;;;17.50;11.80;;;4.10;99.90;;;;;;5092412;28;20355;-78
2023/03/19 02:13:05;;;;;;;17.37;12.63;;;4.00;99.90;;;;;;5092456;28;20215;-77
2023/03/19 02:15:34;;;;;;;16.57;11.87;;;4.00;99.90;;;;;;5092738;28;20206;-77
2023/03/19 02:18:03;;;;;;;15.70;11.40;;;4.00;99.90;;;;;;5092826;28;20286;-78
2023/03/19 02:20:36;;;;;;;17.60;11.77;;;3.90;99.90;;;;;;5092289;28;20218;-77
2023/03/19 02:23:15;;;;;;;15.70;11.97;;;4.00;99.90;;;;;;5092509;28;20605;-76
2023/03/19 02:25:56;;;;;;;16.13;11.93;;;4.00;99.90;;;;;;5092694;28;20197;-78
2023/03/19 02:28:25;;;;;;;17.37;12.27;;;3.90;99.90;;;;;;5092651;28;20233;-76
2023/03/19 02:30:54;;;;;;;16.30;11.77;;;3.90;99.90;;;;;;5092020;28;20230;-78
2023/03/19 02:33:22;;;;;;;15.57;11.00;;;4.00;99.90;;;;;;5092230;28;20239;-75
2023/03/19 02:35:52;;;;;;;14.47;11.13;;;3.90;99.90;;;;;;5092501;28;20686;-77
2023/03/19 02:38:21;;;;;;;15.77;12.07;;;3.90;99.90;;;;;;5091461;28;20295;-76
2023/03/19 02:40:56;;;;;;;16.83;11.53;;;3.90;99.90;;;;;;5092328;28;20206;-75
2023/03/19 02:43:25;;;;;;;14.47;11.90;;;3.90;99.90;;;;;;5091886;28;20585;-76
2023/03/19 02:45:54;;;;;;;15.80;11.70;;;3.90;99.90;;;;;;5091099;28;20301;-76
2023/03/19 02:48:22;;;;;;;20.30;13.40;;;3.90;99.90;;;;;;5092182;28;20219;-75
2023/03/19 02:50:51;;;;;;;31.47;22.07;;;3.90;99.90;;;;;;5092015;28;20234;-78
2023/03/19 02:53:19;;;;;;;28.53;21.97;;;3.80;99.90;;;;;;5092098;28;20213;-77
2023/03/19 02:55:47;;;;;;;13.83;11.67;;;3.80;99.90;;;;;;5091329;28;20298;-77
2023/03/19 02:58:17;;;;;;;14.90;11.07;;;3.90;99.90;;;;;;5092031;28;20214;-76
2023/03/19 03:00:45;;;;;;;13.73;9.70;;;3.90;99.90;;;;;;5092049;28;20207;-77
2023/03/19 03:03:13;;;;;;;14.40;9.27;;;3.80;99.90;;;;;;5090454;28;20207;-78
2023/03/19 03:05:41;;;;;;;13.53;9.13;;;3.80;99.90;;;;;;5092129;28;20377;-78
2023/03/19 03:08:10;;;;;;;15.87;9.10;;;3.80;99.90;;;;;;5092035;28;20216;-77
2023/03/19 03:10:39;;;;;;;15.40;8.73;;;3.80;99.90;;;;;;5091678;28;20709;-75
2023/03/19 03:13:07;;;;;;;11.00;8.80;;;3.70;99.90;;;;;;5090977;28;20212;-77
2023/03/19 03:15:39;;;;;;;13.30;9.37;;;3.60;99.90;;;;;;5092078;28;20211;-76
2023/03/19 03:18:07;;;;;;;14.77;8.97;;;3.70;99.90;;;;;;5092116;28;20294;-76
2023/03/19 03:20:36;;;;;;;13.00;8.97;;;3.70;99.90;;;;;;5091152;28;20238;-77
2023/03/19 03:23:04;;;;;;;13.83;8.83;;;3.60;99.90;;;;;;5091578;28;20241;-76
2023/03/19 03:25:32;;;;;;;12.77;8.90;;;3.60;99.90;;;;;;5091563;28;20213;-76
2023/03/19 03:28:00;;;;;;;14.53;9.10;;;3.60;99.90;;;;;;5091678;28;20288;-78
2023/03/19 03:30:59;;;;;;;13.67;8.97;;;3.50;99.90;;;;;;5091125;28;20205;-77
2023/03/19 03:33:28;;;;;;;12.90;8.90;;;3.50;99.90;;;;;;5091170;28;20191;-77
2023/03/19 03:35:56;;;;;;;15.37;9.27;;;3.50;99.90;;;;;;5091660;28;20225;-76
2023/03/19 03:38:24;;;;;;;13.07;8.67;;;3.60;99.90;;;;;;5091790;28;20202;-77
2023/03/19 03:40:53;;;;;;;12.97;9.03;;;3.60;99.90;;;;;;5090991;28;20218;-78
2023/03/19 03:43:21;;;;;;;13.97;8.83;;;3.60;99.90;;;;;;5091057;28;20229;-77
2023/03/19 03:45:50;;;;;;;13.70;8.90;;;3.60;99.90;;;;;;5091385;28;20636;-76
2023/03/19 03:48:20;;;;;;;13.97;8.73;;;3.50;99.90;;;;;;5091233;28;20256;-77
2023/03/19 03:50:49;;;;;;;11.07;8.70;;;3.50;99.90;;;;;;5094363;28;20762;-76
2023/03/19 03:53:17;;;;;;;12.37;8.23;;;3.50;99.90;;;;;;5095222;28;20207;-75
2023/03/19 03:55:45;;;;;;;15.50;8.30;;;3.50;99.90;;;;;;5095116;28;20321;-77
2023/03/19 03:58:13;;;;;;;12.57;8.37;;;3.40;99.90;;;;;;5094668;28;20547;-76
2023/03/19 04:00:41;;;;;;;11.87;8.30;;;3.50;99.90;;;;;;5094956;28;20237;-76
2023/03/19 04:03:09;;;;;;;15.03;8.87;;;3.40;99.90;;;;;;5094955;28;20320;-75
2023/03/19 04:05:39;;;;;;;11.83;8.40;;;3.40;99.90;;;;;;5094641;28;20218;-77
2023/03/19 04:08:08;;;;;;;15.17;8.43;;;3.40;99.90;;;;;;5074255;28;20211;-76
2023/03/19 04:10:41;;;;;;;12.83;8.37;;;3.40;99.90;;;;;;5074882;28;20699;-77
2023/03/19 04:13:09;;;;;;;12.33;8.63;;;3.40;99.90;;;;;;5074808;28;20188;-76
2023/03/19 04:15:37;;;;;;;12.67;8.57;;;3.30;99.90;;;;;;5075727;28;20692;-75
2023/03/19 04:18:06;;;;;;;14.40;8.97;;;3.40;99.90;;;;;;5094775;28;20210;-76
2023/03/19 04:20:34;;;;;;;14.40;8.97;;;3.40;99.90;;;;;;5094928;28;20202;-77
2023/03/19 04:23:04;;;;;;;12.10;8.37;;;3.40;99.90;;;;;;5094521;28;20277;-77
2023/03/19 04:25:33;;;;;;;15.03;8.67;;;3.50;99.90;;;;;;5094329;28;20207;-78
2023/03/19 04:28:01;;;;;;;11.20;8.17;;;3.50;99.90;;;;;;5094853;28;20230;-75
2023/03/19 04:30:29;;;;;;;11.67;7.80;;;3.50;99.90;;;;;;5094676;28;20207;-77
2023/03/19 04:32:57;;;;;;;11.93;7.70;;;3.50;99.90;;;;;;5093847;28;20237;-77
2023/03/19 04:35:26;;;;;;;13.40;8.50;;;3.60;99.90;;;;;;5094589;28;20227;-77
2023/03/19 04:37:54;;;;;;;13.47;8.50;;;3.60;99.90;;;;;;5094304;28;20213;-78
2023/03/19 04:40:24;;;;;;;13.43;8.20;;;3.60;99.90;;;;;;5094277;28;20217;-77
2023/03/19 04:42:52;;;;;;;13.47;7.67;;;3.70;99.90;;;;;;5092558;28;20232;-76
2023/03/19 04:45:20;;;;;;;11.73;8.57;;;3.70;99.90;;;;;;5074148;28;20663;-76
2023/03/19 04:47:49;;;;;;;12.57;8.30;;;3.70;99.90;;;;;;5073820;28;20692;-77
2023/03/19 04:50:17;;;;;;;12.03;8.20;;;3.70;99.90;;;;;;5074449;28;20211;-77
2023/03/19 04:52:46;;;;;;;9.13;8.03;;;3.70;99.90;;;;;;5093765;28;20213;-78
2023/03/19 04:55:14;;;;;;;10.93;7.60;;;3.80;99.90;;;;;;5093902;28;20207;-76
2023/03/19 04:57:44;;;;;;;12.47;8.20;;;3.70;99.90;;;;;;5093884;28;20211;-78
2023/03/19 05:00:15;;;;;;;12.77;8.00;;;3.70;99.90;;;;;;5093193;28;20212;-77
2023/03/19 05:02:43;;;;;;;11.40;7.90;;;3.70;99.90;;;;;;5092849;28;20230;-76
2023/03/19 05:05:12;;;;;;;13.87;7.97;;;3.70;99.90;;;;;;5094000;28;20305;-76
2023/03/19 05:07:41;;;;;;;12.20;7.70;;;3.70;99.90;;;;;;5093238;28;20225;-76
2023/03/19 05:10:10;;;;;;;10.70;7.60;;;3.70;99.90;;;;;;5093708;28;20289;-75
2023/03/19 05:12:39;;;;;;;14.60;8.30;;;3.80;99.90;;;;;;5093342;28;20755;-78
2023/03/19 05:15:09;;;;;;;13.80;7.30;;;3.80;99.90;;;;;;5093957;28;20212;-77
2023/03/19 05:17:37;;;;;;;10.67;7.73;;;3.80;99.90;;;;;;5092877;28;20203;-75
2023/03/19 05:20:06;;;;;;;11.30;8.17;;;3.80;99.90;;;;;;5093771;28;20251;-75
2023/03/19 05:22:34;;;;;;;15.13;7.83;;;3.90;99.90;;;;;;5092919;28;20238;-77
2023/03/19 05:25:07;;;;;;;12.17;7.40;;;3.80;99.90;;;;;;5092596;28;20220;-76
2023/03/19 05:27:35;;;;;;;9.70;7.33;;;3.80;99.90;;;;;;5093290;28;20250;-76
2023/03/19 05:30:05;;;;;;;11.47;7.77;;;3.80;99.90;;;;;;5093375;28;20207;-75
2023/03/19 05:32:34;;;;;;;10.27;7.37;;;3.90;99.90;;;;;;5092800;28;20298;-76
2023/03/19 05:35:03;;;;;;;11.47;7.80;;;3.90;99.90;;;;;;5092648;28;20298;-74
2023/03/19 05:37:31;;;;;;;11.50;7.47;;;3.90;99.90;;;;;;5092924;28;20214;-75
2023/03/19 05:39:59;;;;;;;12.87;7.80;;;3.90;99.90;;;;;;5093152;28;20203;-75
2023/03/19 05:42:27;;;;;;;14.90;7.87;;;4.00;99.90;;;;;;5083345;28;20277;-75
2023/03/19 05:44:55;;;;;;;9.57;7.50;;;4.10;99.90;;;;;;5073250;28;20267;-74
2023/03/19 05:47:24;;;;;;;12.13;7.10;;;4.20;99.90;;;;;;5072829;28;20223;-76
2023/03/19 05:49:53;;;;;;;11.63;7.20;;;4.30;99.90;;;;;;5076555;28;20217;-76
2023/03/19 05:52:21;;;;;;;11.27;7.57;;;4.50;99.90;;;;;;5092854;28;20610;-75
2023/03/19 05:54:49;;;;;;;8.57;7.03;;;4.60;99.90;;;;;;5093035;28;20210;-75
2023/03/19 05:57:18;;;;;;;13.77;7.40;;;4.70;99.90;;;;;;5093050;28;20633;-75
2023/03/19 05:59:46;;;;;;;12.40;7.40;;;4.80;99.90;;;;;;5091751;28;20213;-76
2023/03/19 06:02:15;;;;;;;11.83;7.87;;;4.90;99.90;;;;;;5092387;28;20225;-77
2023/03/19 06:04:43;;;;;;;10.73;7.53;;;5.00;99.90;;;;;;5092739;28;20229;-77
2023/03/19 06:07:13;;;;;;;12.27;7.67;;;5.00;99.90;;;;;;5092684;28;20229;-77
2023/03/19 06:09:41;;;;;;;11.23;7.50;;;5.10;99.90;;;;;;5092834;28;20211;-77
2023/03/19 06:12:09;;;;;;;12.53;7.33;;;5.20;99.90;;;;;;5092392;28;20230;-76
2023/03/19 06:14:38;;;;;;;9.37;7.00;;;5.30;99.90;;;;;;5091909;28;20211;-76
2023/03/19 06:17:06;;;;;;;10.87;7.50;;;5.40;99.90;;;;;;5092355;28;20297;-76
2023/03/19 06:19:34;;;;;;;10.30;7.70;;;5.50;99.90;;;;;;5092310;28;20324;-76
2023/03/19 06:22:02;;;;;;;13.90;7.70;;;5.50;99.90;;;;;;5092360;28;20564;-77
2023/03/19 06:24:32;;;;;;;11.27;7.80;;;5.60;99.90;;;;;;5091389;28;20230;-75
2023/03/19 06:27:01;;;;;;;10.67;7.77;;;5.70;99.90;;;;;;5092238;28;20258;-76
2023/03/19 06:29:29;;;;;;;10.90;7.83;;;5.80;99.90;;;;;;5092427;28;20207;-75
2023/03/19 06:31:58;;;;;;;11.73;8.07;;;5.80;99.90;;;;;;5091520;28;20305;-75
2023/03/19 06:34:26;;;;;;;12.33;8.63;;;6.00;99.90;;;;;;5092444;28;20689;-77
2023/03/19 06:36:54;;;;;;;13.73;9.03;;;6.00;99.90;;;;;;5092213;28;20295;-75
2023/03/19 06:39:23;;;;;;;12.97;9.13;;;6.10;99.90;;;;;;5092087;28;20211;-74
2023/03/19 06:41:52;;;;;;;12.67;9.23;;;6.20;99.90;;;;;;5091344;28;20202;-75
2023/03/19 06:44:20;;;;;;;14.17;9.33;;;6.30;99.90;;;;;;5092568;28;20632;-77
2023/03/19 06:46:48;;;;;;;15.37;9.87;;;6.40;99.90;;;;;;5092570;28;20209;-77
2023/03/19 06:49:16;;;;;;;13.20;10.10;;;6.50;99.90;;;;;;5092395;28;20207;-74
2023/03/19 06:51:45;;;;;;;14.47;9.87;;;6.50;99.90;;;;;;5091193;28;20297;-76
2023/03/19 06:54:13;;;;;;;14.27;10.03;;;6.60;99.90;;;;;;5092154;28;20295;-76
2023/03/19 06:56:41;;;;;;;13.17;9.67;;;6.70;99.90;;;;;;5092008;28;20207;-76
2023/03/19 06:59:11;;;;;;;14.60;9.83;;;6.80;99.90;;;;;;5091225;28;20293;-76
2023/03/19 07:01:40;;;;;;;12.10;9.43;;;6.90;99.90;;;;;;5091753;28;20195;-77
2023/03/19 07:04:09;;;;;;;13.37;9.60;;;6.90;99.90;;;;;;5091513;28;20330;-76
2023/03/19 07:06:38;;;;;;;13.27;9.60;;;6.90;99.90;;;;;;5091728;28;20207;-74
2023/03/19 07:09:06;;;;;;;14.13;9.20;;;7.10;99.90;;;;;;5091181;28;20215;-75
2023/03/19 07:11:34;;;;;;;13.07;9.30;;;7.10;99.90;;;;;;5092077;28;20298;-75
2023/03/19 07:14:03;;;;;;;16.33;9.13;;;7.20;99.90;;;;;;5091598;28;20753;-75
2023/03/19 07:16:32;;;;;;;17.00;10.30;;;7.30;99.90;;;;;;5091035;28;20219;-78
2023/03/19 07:19:01;;;;;;;14.00;10.03;;;7.40;99.90;;;;;;5091969;28;20210;-75
2023/03/19 07:21:29;;;;;;;15.87;10.20;;;7.40;99.90;;;;;;5093617;28;20250;-76
2023/03/19 07:23:57;;;;;;;14.07;9.67;;;7.50;99.90;;;;;;5091418;28;20237;-75
2023/03/19 07:26:25;;;;;;;13.47;9.73;;;7.70;99.90;;;;;;5094995;28;20206;-77
2023/03/19 07:28:53;;;;;;;13.67;9.97;;;7.70;99.90;;;;;;5095838;28;20242;-75
2023/03/19 07:31:23;;;;;;;13.83;10.80;;;7.80;99.90;;;;;;5095804;28;20247;-78
2023/03/19 07:33:52;;;;;;;16.60;10.60;;;7.80;99.90;;;;;;5095857;28;20202;-76
2023/03/19 07:36:21;;;;;;;16.53;9.87;;;7.90;99.90;;;;;;5095495;28;20211;-75
2023/03/19 07:38:49;;;;;;;16.50;10.60;;;8.00;99.90;;;;;;5093320;28;20218;-76
2023/03/19 07:41:18;;;;;;;14.50;10.30;;;8.00;99.90;;;;;;5075273;28;20234;-76
2023/03/19 07:43:46;;;;;;;14.47;10.40;;;8.00;99.90;;;;;;5078968;28;20337;-75
2023/03/19 07:46:14;;;;;;;14.33;9.73;;;8.00;99.90;;;;;;5095500;28;20664;-76
2023/03/19 07:48:42;;;;;;;16.47;9.77;;;8.10;99.90;;;;;;5095562;28;20357;-77
2023/03/19 07:51:12;;;;;;;17.73;10.00;;;8.10;99.90;;;;;;5095625;28;20676;-76
2023/03/19 07:53:40;;;;;;;15.57;10.27;;;8.20;99.90;;;;;;5094239;28;20290;-77
2023/03/19 07:56:08;;;;;;;13.77;10.03;;;8.30;99.90;;;;;;5095798;28;20206;-76
2023/03/19 07:58:37;;;;;;;13.67;10.00;;;8.30;99.90;;;;;;5095652;28;20206;-77
2023/03/19 08:01:05;;;;;;;15.30;10.67;;;8.40;99.90;;;;;;5094648;28;20269;-75
2023/03/19 08:03:34;;;;;;;13.77;10.43;;;8.50;99.90;;;;;;5095258;28;20297;-76
2023/03/19 08:06:02;;;;;;;15.90;10.70;;;8.60;99.90;;;;;;5094972;28;20297;-75
2023/03/19 08:08:33;;;;;;;17.20;10.40;;;8.70;99.90;;;;;;5095003;28;20704;-76
2023/03/19 08:11:01;;;;;;;13.83;10.27;;;8.80;99.90;;;;;;5094416;28;20210;-75
2023/03/19 08:13:30;;;;;;;13.10;9.43;;;9.00;99.90;;;;;;5094912;28;20206;-75
2023/03/19 08:15:58;;;;;;;12.30;9.37;;;9.20;99.90;;;;;;5094588;28;20237;-75
2023/03/19 08:18:27;;;;;;;14.93;10.57;;;9.50;99.90;;;;;;5095555;28;20209;-75
2023/03/19 08:20:55;;;;;;;15.90;9.97;;;9.70;99.90;;;;;;5096788;28;20207;-77
2023/03/19 08:23:23;;;;;;;15.30;10.07;;;9.70;99.90;;;;;;5095645;28;20313;-75
2023/03/19 08:25:55;;;;;;;13.47;9.97;;;9.90;99.90;;;;;;5096326;28;20229;-75
2023/03/19 08:28:23;;;;;;;11.80;9.30;;;10.20;99.90;;;;;;5094907;28;20333;-76
2023/03/19 08:30:52;;;;;;;12.90;10.27;;;10.40;99.90;;;;;;5095998;28;20257;-75
2023/03/19 08:33:20;;;;;;;13.57;8.83;;;10.60;99.90;;;;;;5095551;28;20203;-77
2023/03/19 08:35:49;;;;;;;11.70;8.83;;;11.00;99.90;;;;;;5095324;28;20214;-75
2023/03/19 08:38:18;;;;;;;13.37;9.10;;;11.30;99.90;;;;;;5093315;28;20203;-76
2023/03/19 08:40:47;;;;;;;12.23;9.47;;;11.50;99.90;;;;;;5094737;28;20203;-76
2023/03/19 08:43:18;;;;;;;12.10;8.87;;;11.60;99.90;;;;;;5094016;28;20233;-77
2023/03/19 08:45:46;;;;;;;12.73;8.87;;;11.80;99.90;;;;;;5094307;28;20280;-75
2023/03/19 08:48:14;;;;;;;11.27;8.53;;;12.00;99.90;;;;;;5094007;28;20380;-76
2023/03/19 08:50:42;;;;;;;11.67;9.10;;;12.20;99.90;;;;;;5094393;28;20214;-78
2023/03/19 08:53:11;;;;;;;10.47;8.23;;;12.30;99.90;;;;;;5094084;28;20302;-78
2023/03/19 08:55:40;;;;;;;11.40;8.13;;;12.40;99.90;;;;;;5093420;28;20215;-76
2023/03/19 08:58:08;;;;;;;9.77;8.00;;;12.60;99.90;;;;;;5093921;28;20639;-75
2023/03/19 09:00:37;;;;;;;10.43;8.00;;;12.60;99.90;;;;;;5094249;28;20206;-75
2023/03/19 09:03:05;;;;;;;10.70;7.53;;;12.50;99.90;;;;;;5092835;28;20211;-77
2023/03/19 09:05:33;;;;;;;10.97;7.53;;;12.60;99.90;;;;;;5094035;28;20245;-77
2023/03/19 09:08:02;;;;;;;10.67;7.20;;;12.60;99.90;;;;;;5093996;28;20209;-76
2023/03/19 09:10:30;;;;;;;10.60;6.93;;;12.60;99.90;;;;;;5093424;28;20301;-75
2023/03/19 09:12:58;;;;;;;11.27;6.97;;;12.50;99.90;;;;;;5093375;28;20207;-76
2023/03/19 09:15:27;;;;;;;9.57;5.50;;;12.20;99.90;;;;;;5093863;28;20237;-75
2023/03/19 09:17:56;;;;;;;7.60;5.00;;;12.00;99.90;;;;;;5093848;28;20261;-76
2023/03/19 09:20:25;;;;;;;6.97;4.80;;;11.90;99.90;;;;;;5092782;28;20225;-75
2023/03/19 09:22:53;;;;;;;8.80;5.00;;;12.00;99.90;;;;;;5093207;28;20211;-76
2023/03/19 09:25:21;;;;;;;8.10;5.13;;;12.10;99.90;;;;;;5093853;28;20226;-77
2023/03/19 09:27:49;;;;;;;6.40;4.90;;;12.50;99.90;;;;;;5092838;28;20249;-77
2023/03/19 09:30:18;;;;;;;5.50;4.60;;;12.70;99.90;;;;;;5093704;28;20702;-77
2023/03/19 09:32:47;;;;;;;4.97;3.90;;;13.20;99.90;;;;;;5093229;28;20203;-77
2023/03/19 09:35:16;;;;;;;6.50;3.97;;;13.80;99.90;;;;;;5093172;28;20680;-75
2023/03/19 09:37:44;;;;;;;5.47;3.97;;;14.20;99.90;;;;;;5092514;28;20218;-77
2023/03/19 09:40:21;;;;;;;6.37;4.13;;;15.20;99.90;;;;;;5093734;28;20301;-77
2023/03/19 09:43:00;;;;;;;5.10;3.20;;;15.70;99.90;;;;;;5093209;28;20218;-78
2023/03/19 09:45:29;;;;;;;4.90;3.40;;;15.70;99.90;;;;;;5093183;28;20284;-76
2023/03/19 09:48:04;;;;;;;4.43;3.17;;;15.70;99.90;;;;;;5092965;28;20217;-77
2023/03/19 09:50:35;;;;;;;6.33;3.53;;;15.30;99.90;;;;;;5093157;28;20244;-78
2023/03/19 09:53:13;;;;;;;5.33;3.60;;;15.10;99.90;;;;;;5091744;28;20236;-76
2023/03/19 09:55:44;;;;;;;4.30;3.40;;;14.90;99.90;;;;;;5093141;28;20206;-78
2023/03/19 09:58:18;;;;;;;5.17;3.60;;;15.40;99.90;;;;;;5093238;28;20302;-77
2023/03/19 10:00:50;;;;;;;7.07;3.70;;;15.80;99.90;;;;;;5093175;28;20202;-78
2023/03/19 10:03:43;;;;;;;4.67;3.10;;;15.90;99.90;;;;;;5092230;28;20234;-77
2023/03/19 10:06:24;;;;;;;5.03;3.20;;;16.70;99.90;;;;;;5093508;28;20215;-78
2023/03/19 10:09:09;;;;;;;4.53;3.40;;;16.50;99.90;;;;;;5093108;28;20214;-77
2023/03/19 10:11:49;;;;;;;4.90;3.40;;;16.00;99.90;;;;;;5092253;28;20210;-76
2023/03/19 10:14:33;;;;;;;3.70;3.30;;;15.70;99.90;;;;;;5092988;28;20210;-78
2023/03/19 10:17:03;;;;;;;5.83;3.50;;;15.40;99.90;;;;;;5092780;28;20655;-77
2023/03/19 10:19:39;;;;;;;6.77;3.73;;;15.10;99.90;;;;;;5092182;28;20210;-77
2023/03/19 10:22:15;;;;;;;5.60;3.73;;;14.80;99.90;;;;;;5092663;28;20191;-75
2023/03/19 10:24:46;;;;;;;5.83;3.80;;;14.70;99.90;;;;;;5092712;28;20218;-76
2023/03/19 10:27:16;;;;;;;6.90;3.70;;;14.50;99.90;;;;;;5092292;28;20227;-76
2023/03/19 10:29:44;;;;;;;4.37;3.60;;;14.60;99.90;;;;;;5091931;28;20571;-78
2023/03/19 10:32:18;;;;;;;4.43;3.10;;;14.80;99.90;;;;;;5092228;28;20538;-76
2023/03/19 10:34:49;;;;;;;5.33;3.40;;;15.20;99.90;;;;;;5089102;28;20641;-76
2023/03/19 10:37:20;;;;;;;4.30;3.33;;;15.60;99.90;;;;;;5072183;28;20215;-77
2023/03/19 10:39:50;;;;;;;5.40;3.40;;;16.40;99.90;;;;;;5091136;28;20206;-77
2023/03/19 10:42:43;;;;;;;3.90;2.77;;;17.80;99.90;;;;;;5092314;28;20202;-77
2023/03/19 10:45:20;;;;;;;3.90;3.03;;;19.30;99.90;;;;;;5092516;28;20207;-77
2023/03/19 10:47:49;;;;;;;5.27;3.10;;;20.80;99.90;;;;;;5091726;28;20673;-78
2023/03/19 10:50:19;;;;;;;4.30;2.80;;;20.60;99.90;;;;;;5092339;28;20309;-77
2023/03/19 10:53:00;;;;;;;4.07;2.97;;;20.20;99.90;;;;;;5092046;28;20214;-77
2023/03/19 10:55:31;;;;;;;3.60;3.03;;;20.50;99.90;;;;;;5091886;28;20305;-76
2023/03/19 10:58:04;;;;;;;3.70;2.70;;;20.90;98.40;;;;;;5092393;28;20552;-75
2023/03/19 11:00:34;;;;;;;4.03;2.90;;;20.90;98.40;;;;;;5091974;28;20203;-77
2023/03/19 11:03:04;;;;;;;3.67;2.60;;;19.50;98.20;;;;;;5091563;28;20234;-77
2023/03/19 11:05:34;;;;;;;5.37;2.70;;;19.10;99.60;;;;;;5092504;28;20258;-79
2023/03/19 11:08:07;;;;;;;5.67;2.93;;;19.40;99.40;;;;;;5092218;28;20219;-77
2023/03/19 11:10:36;;;;;;;4.80;2.40;;;19.90;98.60;;;;;;5091972;28;20663;-77
2023/03/19 11:13:07;;;;;;;3.17;2.60;;;19.30;99.00;;;;;;5091367;28;20203;-77
2023/03/19 11:15:38;;;;;;;4.37;2.80;;;19.20;99.80;;;;;;5091958;28;20397;-77
2023/03/19 11:18:15;;;;;;;4.67;2.73;;;18.60;99.90;;;;;;5092077;28;20317;-76
2023/03/19 11:20:50;;;;;;;3.97;2.60;;;18.10;99.90;;;;;;5091584;28;20244;-76
2023/03/19 11:23:21;;;;;;;4.43;2.80;;;17.60;99.90;;;;;;5091741;28;20197;-77
2023/03/19 11:25:52;;;;;;;4.00;2.70;;;17.70;99.90;;;;;;5091885;28;20237;-76
2023/03/19 11:28:23;;;;;;;5.50;2.40;;;18.10;99.90;;;;;;5092431;28;20234;-78
2023/03/19 11:31:02;;;;;;;3.93;2.60;;;18.40;99.90;;;;;;5091199;28;20199;-77
2023/03/19 11:33:50;;;;;;;3.83;2.90;;;18.10;99.90;;;;;;5069920;28;20222;-77
2023/03/19 11:36:25;;;;;;;3.40;2.87;;;17.70;99.90;;;;;;5071690;28;20628;-77
2023/03/19 11:39:18;;;;;;;4.53;2.80;;;17.40;99.90;;;;;;5071244;28;20672;-76
2023/03/19 11:42:05;;;;;;;2.83;2.53;;;17.20;99.90;;;;;;5072272;28;20207;-76
2023/03/19 11:44:41;;;;;;;3.90;2.83;;;17.50;99.90;;;;;;5091796;28;20260;-78
2023/03/19 11:47:20;;;;;;;4.07;3.10;;;17.10;99.90;;;;;;5091524;28;20226;-77
2023/03/19 11:50:16;;;;;;;4.13;2.90;;;17.10;99.90;;;;;;5092288;28;20195;-77
2023/03/19 11:52:59;;;;;;;4.87;2.90;;;17.10;99.90;;;;;;5091905;28;20213;-77
2023/03/19 11:55:35;;;;;;;3.67;2.70;;;17.50;99.90;;;;;;5092705;28;20270;-77
2023/03/19 11:58:19;;;;;;;3.40;2.90;;;18.10;99.90;;;;;;5092081;28;20203;-76
2023/03/19 12:00:51;;;;;;;4.90;2.97;;;18.20;99.90;;;;;;5091500;28;20294;-77
2023/03/19 12:03:53;;;;;;;5.27;3.03;;;17.70;99.90;;;;;;5091759;28;20291;-76
2023/03/19 12:06:36;;;;;;;3.50;2.53;;;17.30;99.90;;;;;;5091224;28;20291;-78
2023/03/19 12:09:17;;;;;;;4.67;3.10;;;17.30;99.90;;;;;;5091781;28;20206;-77
2023/03/19 12:11:54;;;;;;;3.67;2.67;;;16.70;99.90;;;;;;5096746;28;20199;-76
2023/03/19 12:14:37;;;;;;;3.20;2.77;;;16.70;99.90;;;;;;5096086;28;20210;-77
2023/03/19 12:17:20;;;;;;;4.27;2.57;;;16.40;99.90;;;;;;5095129;28;20207;-77
2023/03/19 12:20:10;;;;;;;4.80;2.77;;;16.30;99.90;;;;;;5095484;28;20211;-77
2023/03/19 12:22:49;;;;;;;4.07;2.67;;;15.70;99.90;;;;;;5094942;28;20333;-78
2023/03/19 12:25:28;;;;;;;4.23;2.67;;;15.50;99.90;;;;;;5094455;28;20325;-77
2023/03/19 12:28:07;;;;;;;3.03;2.53;;;15.20;99.90;;;;;;5095143;28;20238;-76
2023/03/19 12:30:41;;;;;;;4.20;2.40;;;15.30;99.90;;;;;;5095064;28;20653;-77
2023/03/19 12:33:21;;;;;;;4.13;2.67;;;15.50;99.90;;;;;;5093159;28;20298;-76
2023/03/19 12:35:53;;;;;;;3.17;2.40;;;15.70;99.90;;;;;;5095928;28;20617;-76
2023/03/19 12:38:26;;;;;;;3.53;2.50;;;15.70;99.90;;;;;;5094872;28;20218;-75
2023/03/19 12:41:00;;;;;;;5.10;2.90;;;16.10;99.90;;;;;;5093512;28;20199;-77
2023/03/19 12:43:35;;;;;;;2.90;2.13;;;16.10;99.90;;;;;;5094610;28;20218;-76
2023/03/19 12:46:09;;;;;;;3.83;2.13;;;16.20;99.90;;;;;;5095118;28;20552;-78
2023/03/19 12:48:42;;;;;;;3.83;2.43;;;16.40;99.90;;;;;;5096865;28;20221;-76
2023/03/19 12:51:20;;;;;;;4.00;2.40;;;16.30;99.90;;;;;;5096878;28;20206;-76
2023/03/19 12:53:54;;;;;;;5.40;2.40;;;15.90;99.90;;;;;;5094136;28;20221;-77
2023/03/19 12:56:28;;;;;;;3.43;2.40;;;16.10;99.90;;;;;;5094341;28;20191;-78
2023/03/19 12:59:02;;;;;;;4.13;2.70;;;16.40;99.90;;;;;;5093765;28;20285;-78
2023/03/19 13:01:37;;;;;;;2.87;2.47;;;16.50;99.90;;;;;;5094937;28;20216;-76